CAL721 RCTP-WMKK
Flight info
| Callsign | CAL721 |
|---|---|
| Flight time | N/A |
| Altitude | 34000 |
| Route | CHALI1C CHALI T5 MOLIT/N0491F360 T5 PARPA A577 KABAM N892 MIGUG/K0915F360 N892 MELAS/N0495F360 N892 MABLI L635 DOVOL Y334 PADLI Y343 SAROX SAROX1H |
| Aircraft | B77W/H-SDE1E2E3FGHIJ1J2J3J5M1P2RWY/LB1D1 |
Departure
| Time | 2026-05-06 10:39 |
|---|---|
| Airport | Taiwan Taoyuan International Airport (RCTP) |
Arrival
| Time | N/A |
|---|---|
| Airport | Kuala Lumpur International Airport (WMKK) |
| Time | Latitude | Longitude | Altitude | Speed | Heading |
|---|---|---|---|---|---|
| 2026-05-06 10:10 | 25.08084 | 121.23271 | 106 ft | 0 kts | 139° |
| 2026-05-06 10:28 | 25.08085 | 121.23270 | 106 ft | 2 kts | 139° |
| 2026-05-06 10:29 | 25.08104 | 121.23252 | 105 ft | 4 kts | 139° |
| 2026-05-06 10:29 | 25.08124 | 121.23233 | 105 ft | 4 kts | 139° |
| 2026-05-06 10:29 | 25.08144 | 121.23213 | 106 ft | 3 kts | 139° |
| 2026-05-06 10:29 | 25.08158 | 121.23202 | 106 ft | 4 kts | 188° |
| 2026-05-06 10:30 | 25.08175 | 121.23214 | 106 ft | 4 kts | 229° |
| 2026-05-06 10:30 | 25.08193 | 121.23237 | 108 ft | 4 kts | 229° |
| 2026-05-06 10:30 | 25.08197 | 121.23242 | 106 ft | 0 kts | 229° |
| 2026-05-06 10:32 | 25.08196 | 121.23240 | 106 ft | 1 kts | 229° |
| 2026-05-06 10:33 | 25.08187 | 121.23229 | 105 ft | 3 kts | 229° |
| 2026-05-06 10:33 | 25.08170 | 121.23207 | 105 ft | 5 kts | 229° |
| 2026-05-06 10:33 | 25.08164 | 121.23172 | 108 ft | 5 kts | 286° |
| 2026-05-06 10:33 | 25.08188 | 121.23136 | 107 ft | 7 kts | 310° |
| 2026-05-06 10:34 | 25.08198 | 121.23086 | 106 ft | 8 kts | 251° |
| 2026-05-06 10:34 | 25.08166 | 121.23035 | 107 ft | 9 kts | 230° |
| 2026-05-06 10:34 | 25.08120 | 121.22976 | 104 ft | 11 kts | 229° |
| 2026-05-06 10:34 | 25.08066 | 121.22907 | 107 ft | 13 kts | 229° |
| 2026-05-06 10:35 | 25.08005 | 121.22830 | 106 ft | 14 kts | 229° |
| 2026-05-06 10:35 | 25.07939 | 121.22746 | 107 ft | 15 kts | 229° |
| 2026-05-06 10:35 | 25.07867 | 121.22654 | 106 ft | 17 kts | 229° |
| 2026-05-06 10:35 | 25.07787 | 121.22553 | 108 ft | 18 kts | 229° |
| 2026-05-06 10:36 | 25.07704 | 121.22447 | 108 ft | 19 kts | 229° |
| 2026-05-06 10:36 | 25.07614 | 121.22331 | 108 ft | 20 kts | 229° |
| 2026-05-06 10:36 | 25.07518 | 121.22210 | 105 ft | 22 kts | 229° |
| 2026-05-06 10:36 | 25.07417 | 121.22081 | 107 ft | 23 kts | 229° |
| 2026-05-06 10:37 | 25.07311 | 121.21946 | 107 ft | 22 kts | 229° |
| 2026-05-06 10:37 | 25.07236 | 121.21851 | 106 ft | 16 kts | 229° |
| 2026-05-06 10:37 | 25.07185 | 121.21785 | 107 ft | 7 kts | 231° |
| 2026-05-06 10:37 | 25.07186 | 121.21734 | 106 ft | 8 kts | 303° |
| 2026-05-06 10:38 | 25.07224 | 121.21693 | 109 ft | 8 kts | 317° |
| 2026-05-06 10:38 | 25.07264 | 121.21655 | 107 ft | 8 kts | 319° |
| 2026-05-06 10:38 | 25.07311 | 121.21636 | 107 ft | 8 kts | 16° |
| 2026-05-06 10:38 | 25.07353 | 121.21679 | 108 ft | 9 kts | 49° |
| 2026-05-06 10:39 | 25.07468 | 121.21824 | 108 ft | 51 kts | 49° |
| 2026-05-06 10:39 | 25.07872 | 121.22338 | 108 ft | 124 kts | 49° |
| 2026-05-06 10:39 | 25.08565 | 121.23217 | 167 ft | 171 kts | 47° |
| 2026-05-06 10:39 | 25.09348 | 121.24198 | 735 ft | 172 kts | 45° |
| 2026-05-06 10:40 | 25.10138 | 121.25196 | 1333 ft | 177 kts | 51° |
| 2026-05-06 10:40 | 25.10999 | 121.26307 | 1587 ft | 200 kts | 51° |
| 2026-05-06 10:40 | 25.11934 | 121.27509 | 2078 ft | 211 kts | 51° |
| 2026-05-06 10:40 | 25.12920 | 121.28766 | 2609 ft | 219 kts | 48° |
| 2026-05-06 10:41 | 25.14185 | 121.29691 | 3102 ft | 227 kts | 13° |
| 2026-05-06 10:41 | 25.15751 | 121.29612 | 3691 ft | 230 kts | 335° |
| 2026-05-06 10:41 | 25.17000 | 121.28577 | 4304 ft | 223 kts | 308° |
| 2026-05-06 10:41 | 25.18017 | 121.27272 | 4898 ft | 229 kts | 308° |
| 2026-05-06 10:42 | 25.19111 | 121.25864 | 5140 ft | 254 kts | 308° |
| 2026-05-06 10:42 | 25.20284 | 121.24345 | 5676 ft | 266 kts | 308° |
| 2026-05-06 10:42 | 25.21499 | 121.22768 | 6387 ft | 271 kts | 308° |
| 2026-05-06 10:42 | 25.22702 | 121.21157 | 7117 ft | 270 kts | 301° |
| 2026-05-06 10:43 | 25.23304 | 121.19227 | 7733 ft | 270 kts | 268° |
| 2026-05-06 10:43 | 25.22817 | 121.17250 | 8505 ft | 269 kts | 240° |
| 2026-05-06 10:43 | 25.21738 | 121.15556 | 9262 ft | 271 kts | 233° |
| 2026-05-06 10:44 | 25.19307 | 121.12266 | 10511 ft | 289 kts | 232° |
| 2026-05-06 10:44 | 25.17962 | 121.10483 | 10667 ft | 315 kts | 231° |
| 2026-05-06 10:44 | 25.16504 | 121.08553 | 10857 ft | 339 kts | 231° |
| 2026-05-06 10:44 | 25.14962 | 121.06512 | 11350 ft | 352 kts | 231° |
| 2026-05-06 10:45 | 25.13373 | 121.04405 | 12009 ft | 362 kts | 231° |
| 2026-05-06 10:45 | 25.11750 | 121.02249 | 12808 ft | 368 kts | 231° |
| 2026-05-06 10:45 | 25.10111 | 121.00068 | 13639 ft | 373 kts | 232° |
| 2026-05-06 10:45 | 25.08440 | 120.97844 | 14364 ft | 378 kts | 232° |
| 2026-05-06 10:46 | 25.06758 | 120.95604 | 15114 ft | 382 kts | 232° |
| 2026-05-06 10:46 | 25.05058 | 120.93339 | 15867 ft | 385 kts | 232° |
| 2026-05-06 10:46 | 25.03340 | 120.91054 | 16614 ft | 388 kts | 232° |
| 2026-05-06 10:46 | 25.01609 | 120.88748 | 17336 ft | 393 kts | 232° |
| 2026-05-06 10:47 | 24.99857 | 120.86414 | 18061 ft | 396 kts | 232° |
| 2026-05-06 10:47 | 24.98091 | 120.84064 | 18716 ft | 400 kts | 232° |
| 2026-05-06 10:47 | 24.96309 | 120.81694 | 19332 ft | 404 kts | 232° |
| 2026-05-06 10:47 | 24.94506 | 120.79298 | 19926 ft | 409 kts | 232° |
| 2026-05-06 10:48 | 24.92679 | 120.76869 | 20547 ft | 413 kts | 232° |
| 2026-05-06 10:48 | 24.90832 | 120.74414 | 21126 ft | 418 kts | 232° |
| 2026-05-06 10:48 | 24.88970 | 120.71943 | 21710 ft | 422 kts | 232° |
| 2026-05-06 10:48 | 24.87081 | 120.69438 | 22302 ft | 427 kts | 232° |
| 2026-05-06 10:49 | 24.85176 | 120.66912 | 22903 ft | 431 kts | 232° |
| 2026-05-06 10:49 | 24.83250 | 120.64361 | 23469 ft | 435 kts | 232° |
| 2026-05-06 10:49 | 24.81309 | 120.61789 | 23963 ft | 439 kts | 232° |
| 2026-05-06 10:49 | 24.79370 | 120.59225 | 24479 ft | 442 kts | 232° |
| 2026-05-06 10:50 | 24.77375 | 120.56586 | 25009 ft | 444 kts | 232° |
| 2026-05-06 10:50 | 24.75419 | 120.54002 | 25516 ft | 447 kts | 232° |
| 2026-05-06 10:50 | 24.73292 | 120.51499 | 26028 ft | 451 kts | 226° |
| 2026-05-06 10:50 | 24.70923 | 120.49202 | 26536 ft | 456 kts | 221° |
| 2026-05-06 10:51 | 24.68335 | 120.47154 | 26992 ft | 461 kts | 217° |
| 2026-05-06 10:51 | 24.65682 | 120.45177 | 27464 ft | 464 kts | 217° |
| 2026-05-06 10:51 | 24.62988 | 120.43178 | 27927 ft | 467 kts | 217° |
| 2026-05-06 10:51 | 24.60293 | 120.41167 | 28378 ft | 470 kts | 217° |
| 2026-05-06 10:52 | 24.57613 | 120.39153 | 28824 ft | 472 kts | 218° |
| 2026-05-06 10:52 | 24.56896 | 120.38612 | 28938 ft | 473 kts | 218° |
| 2026-05-06 10:52 | 24.54177 | 120.36559 | 29350 ft | 476 kts | 218° |
| 2026-05-06 10:52 | 24.51438 | 120.34487 | 29762 ft | 480 kts | 218° |
| 2026-05-06 10:53 | 24.48680 | 120.32401 | 30146 ft | 482 kts | 218° |
| 2026-05-06 10:53 | 24.45913 | 120.30312 | 30483 ft | 484 kts | 218° |
| 2026-05-06 10:53 | 24.43134 | 120.28195 | 30767 ft | 487 kts | 219° |
| 2026-05-06 10:53 | 24.40356 | 120.26046 | 31042 ft | 490 kts | 219° |
| 2026-05-06 10:54 | 24.37575 | 120.23883 | 31300 ft | 492 kts | 219° |
| 2026-05-06 10:54 | 24.34776 | 120.21705 | 31577 ft | 494 kts | 219° |
| 2026-05-06 10:54 | 24.31971 | 120.19526 | 31915 ft | 494 kts | 219° |
| 2026-05-06 10:54 | 24.29163 | 120.17352 | 32310 ft | 493 kts | 219° |
| 2026-05-06 10:55 | 24.26374 | 120.15197 | 32698 ft | 491 kts | 219° |
| 2026-05-06 10:55 | 24.23582 | 120.13041 | 33080 ft | 490 kts | 219° |
| 2026-05-06 10:55 | 24.20795 | 120.10888 | 33434 ft | 490 kts | 219° |
| 2026-05-06 10:55 | 24.18009 | 120.08737 | 33689 ft | 492 kts | 219° |
| 2026-05-06 10:56 | 24.15204 | 120.06572 | 33884 ft | 494 kts | 219° |
| 2026-05-06 10:56 | 24.09607 | 120.02242 | 34061 ft | 496 kts | 219° |
| 2026-05-06 10:56 | 24.06800 | 120.00071 | 34430 ft | 493 kts | 220° |
| 2026-05-06 10:57 | 24.03982 | 119.97973 | 34843 ft | 490 kts | 214° |
| 2026-05-06 10:57 | 24.00836 | 119.96465 | 35172 ft | 498 kts | 200° |
| 2026-05-06 10:57 | 23.97424 | 119.95740 | 35489 ft | 503 kts | 188° |
| 2026-05-06 10:57 | 23.93911 | 119.95798 | 35743 ft | 509 kts | 177° |
| 2026-05-06 10:58 | 23.90383 | 119.96283 | 35858 ft | 513 kts | 177° |
| 2026-05-06 10:58 | 23.83274 | 119.96464 | 35939 ft | 510 kts | 187° |
| 2026-05-06 10:59 | 23.76301 | 119.96016 | 35939 ft | 504 kts | 187° |
| 2026-05-06 10:59 | 23.69301 | 119.95675 | 35950 ft | 503 kts | 186° |
| 2026-05-06 11:00 | 23.62314 | 119.95482 | 35945 ft | 503 kts | 185° |
| 2026-05-06 11:00 | 23.55353 | 119.95329 | 35948 ft | 503 kts | 185° |
| 2026-05-06 11:01 | 23.48342 | 119.95169 | 35951 ft | 505 kts | 185° |
| 2026-05-06 11:01 | 23.41308 | 119.94999 | 35939 ft | 506 kts | 185° |
| 2026-05-06 11:02 | 23.34265 | 119.94828 | 35938 ft | 507 kts | 185° |
| 2026-05-06 11:02 | 23.27203 | 119.94655 | 35947 ft | 508 kts | 185° |
| 2026-05-06 11:03 | 23.20126 | 119.94484 | 35947 ft | 509 kts | 185° |
| 2026-05-06 11:03 | 23.13048 | 119.94312 | 35931 ft | 509 kts | 185° |
| 2026-05-06 11:04 | 23.05977 | 119.94109 | 35941 ft | 508 kts | 186° |
| 2026-05-06 11:04 | 22.98924 | 119.93889 | 35938 ft | 507 kts | 186° |
| 2026-05-06 11:05 | 22.91871 | 119.93674 | 35943 ft | 507 kts | 186° |
| 2026-05-06 11:05 | 22.84820 | 119.93462 | 35934 ft | 506 kts | 185° |
| 2026-05-06 11:06 | 22.77789 | 119.93252 | 35945 ft | 505 kts | 185° |
| 2026-05-06 11:06 | 22.70766 | 119.93042 | 35945 ft | 505 kts | 185° |
| 2026-05-06 11:07 | 22.63750 | 119.92831 | 35946 ft | 505 kts | 185° |
| 2026-05-06 11:07 | 22.56742 | 119.92622 | 35938 ft | 504 kts | 185° |
| 2026-05-06 11:08 | 22.49747 | 119.92413 | 35946 ft | 504 kts | 185° |
| 2026-05-06 11:08 | 22.42735 | 119.92206 | 35944 ft | 504 kts | 185° |
| 2026-05-06 11:09 | 22.35716 | 119.91996 | 35951 ft | 504 kts | 185° |
| 2026-05-06 11:09 | 22.28708 | 119.91788 | 35951 ft | 505 kts | 185° |
| 2026-05-06 11:10 | 22.21686 | 119.91579 | 35950 ft | 504 kts | 185° |
| 2026-05-06 11:10 | 22.14666 | 119.91371 | 35951 ft | 505 kts | 185° |
| 2026-05-06 11:11 | 22.07649 | 119.91163 | 35947 ft | 505 kts | 185° |
| 2026-05-06 11:11 | 22.00671 | 119.90958 | 35950 ft | 505 kts | 185° |
| 2026-05-06 11:12 | 21.93650 | 119.90750 | 35954 ft | 505 kts | 185° |
| 2026-05-06 11:12 | 21.86633 | 119.90543 | 35952 ft | 505 kts | 185° |
| 2026-05-06 11:13 | 21.79603 | 119.90335 | 35950 ft | 505 kts | 185° |
| 2026-05-06 11:13 | 21.72584 | 119.90127 | 35944 ft | 505 kts | 185° |
| 2026-05-06 11:14 | 21.65558 | 119.89919 | 35949 ft | 504 kts | 185° |
| 2026-05-06 11:14 | 21.59732 | 119.89751 | 35955 ft | 504 kts | 185° |
| 2026-05-06 11:15 | 21.51535 | 119.89509 | 35949 ft | 504 kts | 185° |
| 2026-05-06 11:15 | 21.45718 | 119.89339 | 35952 ft | 503 kts | 185° |
| 2026-05-06 11:16 | 21.38717 | 119.89132 | 35946 ft | 503 kts | 185° |
| 2026-05-06 11:16 | 21.31734 | 119.88927 | 35948 ft | 502 kts | 185° |
| 2026-05-06 11:17 | 21.24744 | 119.88722 | 35939 ft | 502 kts | 185° |
| 2026-05-06 11:17 | 21.17752 | 119.88518 | 35950 ft | 502 kts | 185° |
| 2026-05-06 11:18 | 21.10780 | 119.88315 | 35945 ft | 501 kts | 185° |
| 2026-05-06 11:18 | 21.03831 | 119.87986 | 35919 ft | 495 kts | 193° |
| 2026-05-06 11:18 | 21.00552 | 119.86979 | 35943 ft | 487 kts | 207° |
| 2026-05-06 11:19 | 20.97607 | 119.85259 | 35953 ft | 480 kts | 219° |
| 2026-05-06 11:19 | 20.95091 | 119.82956 | 35949 ft | 472 kts | 230° |
| 2026-05-06 11:19 | 20.92826 | 119.80410 | 35940 ft | 474 kts | 229° |
| 2026-05-06 11:20 | 20.88224 | 119.75325 | 35941 ft | 477 kts | 229° |
| 2026-05-06 11:20 | 20.83557 | 119.70261 | 35950 ft | 480 kts | 228° |
| 2026-05-06 11:21 | 20.78848 | 119.65193 | 35947 ft | 482 kts | 228° |
| 2026-05-06 11:21 | 20.74150 | 119.60150 | 35941 ft | 482 kts | 228° |
| 2026-05-06 11:22 | 20.69431 | 119.55082 | 35938 ft | 481 kts | 228° |
| 2026-05-06 11:22 | 20.64747 | 119.50055 | 35929 ft | 480 kts | 228° |
| 2026-05-06 11:23 | 20.60039 | 119.45007 | 35932 ft | 479 kts | 228° |
| 2026-05-06 11:23 | 20.55340 | 119.39974 | 35939 ft | 478 kts | 228° |
| 2026-05-06 11:24 | 20.50647 | 119.34948 | 35936 ft | 478 kts | 228° |
| 2026-05-06 11:24 | 20.45949 | 119.29921 | 35937 ft | 478 kts | 228° |
| 2026-05-06 11:25 | 20.41253 | 119.24905 | 35928 ft | 478 kts | 227° |
| 2026-05-06 11:25 | 20.36558 | 119.19897 | 35940 ft | 478 kts | 227° |
| 2026-05-06 11:26 | 20.31848 | 119.14873 | 35939 ft | 479 kts | 227° |
| 2026-05-06 11:26 | 20.27129 | 119.09845 | 35939 ft | 480 kts | 227° |
| 2026-05-06 11:27 | 20.22409 | 119.04821 | 35941 ft | 480 kts | 227° |
| 2026-05-06 11:27 | 20.17677 | 118.99790 | 35937 ft | 481 kts | 227° |
| 2026-05-06 11:28 | 20.12946 | 118.94759 | 35927 ft | 481 kts | 227° |
| 2026-05-06 11:28 | 20.08212 | 118.89731 | 35940 ft | 481 kts | 227° |
| 2026-05-06 11:29 | 20.03468 | 118.84701 | 35932 ft | 481 kts | 227° |
| 2026-05-06 11:29 | 19.98731 | 118.79682 | 35936 ft | 481 kts | 227° |
| 2026-05-06 11:30 | 19.93992 | 118.74664 | 35932 ft | 481 kts | 227° |
| 2026-05-06 11:30 | 19.89248 | 118.69647 | 35931 ft | 481 kts | 227° |
| 2026-05-06 11:31 | 19.84511 | 118.64641 | 35937 ft | 480 kts | 227° |
| 2026-05-06 11:31 | 19.79770 | 118.59635 | 35931 ft | 480 kts | 227° |
| 2026-05-06 11:32 | 19.75034 | 118.54637 | 35933 ft | 480 kts | 227° |
| 2026-05-06 11:32 | 19.70295 | 118.49641 | 35931 ft | 480 kts | 227° |
| 2026-05-06 11:33 | 19.65555 | 118.44651 | 35936 ft | 480 kts | 227° |
| 2026-05-06 11:33 | 19.60816 | 118.39663 | 35930 ft | 480 kts | 227° |
| 2026-05-06 11:34 | 19.56078 | 118.34681 | 35932 ft | 480 kts | 227° |
| 2026-05-06 11:34 | 19.51339 | 118.29704 | 35929 ft | 480 kts | 227° |
| 2026-05-06 11:35 | 19.46602 | 118.24733 | 35927 ft | 479 kts | 227° |
| 2026-05-06 11:35 | 19.41867 | 118.19768 | 35924 ft | 479 kts | 227° |
| 2026-05-06 11:36 | 19.37126 | 118.14800 | 35926 ft | 479 kts | 227° |
| 2026-05-06 11:36 | 19.32381 | 118.09831 | 35930 ft | 479 kts | 227° |
| 2026-05-06 11:37 | 19.27642 | 118.04868 | 35928 ft | 480 kts | 227° |
| 2026-05-06 11:37 | 19.22895 | 117.99899 | 35928 ft | 480 kts | 227° |
| 2026-05-06 11:38 | 19.18139 | 117.94922 | 35929 ft | 481 kts | 227° |
| 2026-05-06 11:38 | 19.13381 | 117.89945 | 35921 ft | 481 kts | 227° |
| 2026-05-06 11:39 | 19.08628 | 117.84981 | 35925 ft | 481 kts | 227° |
| 2026-05-06 11:39 | 19.03861 | 117.80005 | 35922 ft | 482 kts | 226° |
| 2026-05-06 11:40 | 18.99097 | 117.75042 | 35923 ft | 482 kts | 226° |
| 2026-05-06 11:40 | 18.94317 | 117.70077 | 35924 ft | 482 kts | 226° |
| 2026-05-06 11:41 | 18.89532 | 117.65112 | 35915 ft | 482 kts | 226° |
| 2026-05-06 11:41 | 18.84747 | 117.60146 | 35923 ft | 482 kts | 226° |
| 2026-05-06 11:42 | 18.79962 | 117.55184 | 35924 ft | 482 kts | 226° |
| 2026-05-06 11:42 | 18.75179 | 117.50228 | 35923 ft | 482 kts | 226° |
| 2026-05-06 11:43 | 18.70388 | 117.45266 | 35925 ft | 482 kts | 226° |
| 2026-05-06 11:43 | 18.65606 | 117.40320 | 35917 ft | 482 kts | 226° |
| 2026-05-06 11:44 | 18.58422 | 117.32899 | 35924 ft | 482 kts | 226° |
| 2026-05-06 11:44 | 18.53634 | 117.27957 | 35922 ft | 481 kts | 226° |
| 2026-05-06 11:45 | 18.48856 | 117.23026 | 35916 ft | 481 kts | 226° |
| 2026-05-06 11:45 | 18.44078 | 117.18102 | 35916 ft | 481 kts | 226° |
| 2026-05-06 11:46 | 18.39295 | 117.13177 | 35916 ft | 481 kts | 226° |
| 2026-05-06 11:46 | 18.34542 | 117.08286 | 35916 ft | 481 kts | 226° |
| 2026-05-06 11:47 | 18.29759 | 117.03370 | 35916 ft | 481 kts | 226° |
| 2026-05-06 11:47 | 18.24969 | 116.98448 | 35917 ft | 481 kts | 226° |
| 2026-05-06 11:48 | 18.20176 | 116.93531 | 35920 ft | 482 kts | 226° |
| 2026-05-06 11:48 | 18.15379 | 116.88612 | 35909 ft | 482 kts | 226° |
| 2026-05-06 11:49 | 18.10547 | 116.83658 | 35911 ft | 482 kts | 226° |
| 2026-05-06 11:49 | 18.05774 | 116.78771 | 35914 ft | 482 kts | 226° |
| 2026-05-06 11:50 | 18.00972 | 116.73855 | 35912 ft | 482 kts | 226° |
| 2026-05-06 11:50 | 17.96168 | 116.68947 | 35914 ft | 482 kts | 226° |
| 2026-05-06 11:51 | 17.91367 | 116.64043 | 35915 ft | 481 kts | 226° |
| 2026-05-06 11:51 | 17.86571 | 116.59147 | 35916 ft | 481 kts | 226° |
| 2026-05-06 11:52 | 17.81765 | 116.54244 | 35908 ft | 481 kts | 226° |
| 2026-05-06 11:52 | 17.76968 | 116.49354 | 35913 ft | 481 kts | 226° |
| 2026-05-06 11:53 | 17.72161 | 116.44465 | 35914 ft | 481 kts | 226° |
| 2026-05-06 11:53 | 17.67369 | 116.39596 | 35912 ft | 481 kts | 226° |
| 2026-05-06 11:54 | 17.62566 | 116.34719 | 35907 ft | 480 kts | 226° |
| 2026-05-06 11:54 | 17.57775 | 116.29848 | 35908 ft | 480 kts | 226° |
| 2026-05-06 11:55 | 17.52976 | 116.24978 | 35911 ft | 480 kts | 226° |
| 2026-05-06 11:55 | 17.48176 | 116.20112 | 35912 ft | 480 kts | 226° |
| 2026-05-06 11:56 | 17.43372 | 116.15247 | 35910 ft | 481 kts | 226° |
| 2026-05-06 11:56 | 17.38565 | 116.10381 | 35909 ft | 481 kts | 226° |
| 2026-05-06 11:57 | 17.33756 | 116.05517 | 35910 ft | 481 kts | 226° |
| 2026-05-06 11:57 | 17.28948 | 116.00655 | 35910 ft | 481 kts | 226° |
| 2026-05-06 11:58 | 17.24128 | 115.95788 | 35912 ft | 482 kts | 226° |
| 2026-05-06 11:58 | 17.20115 | 115.91736 | 35916 ft | 482 kts | 226° |
| 2026-05-06 11:59 | 17.15319 | 115.86899 | 35914 ft | 483 kts | 226° |
| 2026-05-06 11:59 | 17.10477 | 115.82021 | 35911 ft | 483 kts | 226° |
| 2026-05-06 12:00 | 17.05632 | 115.77143 | 35914 ft | 483 kts | 226° |
| 2026-05-06 12:00 | 17.00815 | 115.72294 | 35914 ft | 483 kts | 226° |
| 2026-05-06 12:01 | 16.95969 | 115.67422 | 35913 ft | 484 kts | 226° |
| 2026-05-06 12:01 | 16.91121 | 115.62552 | 35913 ft | 483 kts | 226° |
| 2026-05-06 12:02 | 16.86282 | 115.57693 | 35911 ft | 483 kts | 226° |
| 2026-05-06 12:02 | 16.81439 | 115.52835 | 35911 ft | 483 kts | 226° |
| 2026-05-06 12:03 | 16.76606 | 115.47988 | 35911 ft | 482 kts | 226° |
| 2026-05-06 12:03 | 16.71768 | 115.43140 | 35910 ft | 482 kts | 226° |
| 2026-05-06 12:04 | 16.66925 | 115.38294 | 35914 ft | 482 kts | 226° |
| 2026-05-06 12:04 | 16.62080 | 115.33448 | 35912 ft | 483 kts | 226° |
| 2026-05-06 12:05 | 16.57676 | 115.29047 | 35913 ft | 483 kts | 226° |
| 2026-05-06 12:05 | 16.53694 | 115.25069 | 35912 ft | 483 kts | 226° |
| 2026-05-06 12:06 | 16.49348 | 115.20730 | 35913 ft | 483 kts | 226° |
| 2026-05-06 12:06 | 16.44504 | 115.15896 | 35904 ft | 483 kts | 226° |
| 2026-05-06 12:07 | 16.39642 | 115.11051 | 35906 ft | 483 kts | 226° |
| 2026-05-06 12:07 | 16.34787 | 115.06214 | 35906 ft | 484 kts | 226° |
| 2026-05-06 12:08 | 16.29923 | 115.01371 | 35913 ft | 484 kts | 225° |
| 2026-05-06 12:08 | 16.25064 | 114.96537 | 35912 ft | 484 kts | 226° |
| 2026-05-06 12:09 | 16.20197 | 114.91698 | 35910 ft | 483 kts | 226° |
| 2026-05-06 12:09 | 16.15349 | 114.86885 | 35903 ft | 483 kts | 226° |
| 2026-05-06 12:10 | 16.10489 | 114.82060 | 35907 ft | 483 kts | 226° |
| 2026-05-06 12:10 | 16.05625 | 114.77235 | 35905 ft | 484 kts | 226° |
| 2026-05-06 12:11 | 16.00751 | 114.72405 | 35909 ft | 484 kts | 226° |
| 2026-05-06 12:11 | 15.95881 | 114.67583 | 35908 ft | 484 kts | 226° |
| 2026-05-06 12:12 | 15.91007 | 114.62758 | 35906 ft | 484 kts | 226° |
| 2026-05-06 12:12 | 15.86127 | 114.57931 | 35900 ft | 485 kts | 226° |
| 2026-05-06 12:13 | 15.81240 | 114.53102 | 35900 ft | 485 kts | 226° |
| 2026-05-06 12:13 | 15.76350 | 114.48269 | 35902 ft | 485 kts | 226° |
| 2026-05-06 12:14 | 15.71460 | 114.43443 | 35917 ft | 485 kts | 225° |
| 2026-05-06 12:14 | 15.66566 | 114.38618 | 35901 ft | 485 kts | 225° |
| 2026-05-06 12:15 | 15.61676 | 114.33797 | 35898 ft | 485 kts | 225° |
| 2026-05-06 12:15 | 15.56792 | 114.28986 | 35913 ft | 484 kts | 225° |
| 2026-05-06 12:16 | 15.51907 | 114.24176 | 35914 ft | 484 kts | 225° |
| 2026-05-06 12:16 | 15.47016 | 114.19365 | 35894 ft | 484 kts | 225° |
| 2026-05-06 12:17 | 15.42126 | 114.14559 | 35909 ft | 484 kts | 225° |
| 2026-05-06 12:17 | 15.37233 | 114.09752 | 35912 ft | 484 kts | 225° |
| 2026-05-06 12:18 | 15.32346 | 114.04952 | 35912 ft | 484 kts | 225° |
| 2026-05-06 12:18 | 15.27428 | 114.00177 | 35908 ft | 485 kts | 223° |
| 2026-05-06 12:19 | 15.22025 | 113.95967 | 35907 ft | 487 kts | 217° |
| 2026-05-06 12:19 | 15.16498 | 113.91934 | 35909 ft | 487 kts | 217° |
| 2026-05-06 12:20 | 15.10972 | 113.87879 | 35907 ft | 487 kts | 218° |
| 2026-05-06 12:20 | 15.05455 | 113.83798 | 35907 ft | 487 kts | 218° |
| 2026-05-06 12:21 | 14.99938 | 113.79707 | 35901 ft | 488 kts | 218° |
| 2026-05-06 12:21 | 14.94423 | 113.75616 | 35909 ft | 488 kts | 218° |
| 2026-05-06 12:22 | 14.88905 | 113.71530 | 35908 ft | 488 kts | 218° |
| 2026-05-06 12:22 | 14.83382 | 113.67444 | 35906 ft | 488 kts | 218° |
| 2026-05-06 12:23 | 14.77854 | 113.63358 | 35904 ft | 488 kts | 218° |
| 2026-05-06 12:23 | 14.72329 | 113.59276 | 35905 ft | 488 kts | 218° |
| 2026-05-06 12:24 | 14.66803 | 113.55195 | 35899 ft | 488 kts | 218° |
| 2026-05-06 12:24 | 14.61277 | 113.51118 | 35902 ft | 488 kts | 218° |
| 2026-05-06 12:25 | 14.55754 | 113.47043 | 35902 ft | 489 kts | 218° |
| 2026-05-06 12:25 | 14.50218 | 113.42962 | 35902 ft | 489 kts | 218° |
| 2026-05-06 12:26 | 14.44684 | 113.38883 | 35903 ft | 489 kts | 218° |
| 2026-05-06 12:26 | 14.39153 | 113.34800 | 35900 ft | 489 kts | 218° |
| 2026-05-06 12:27 | 14.33625 | 113.30720 | 35906 ft | 489 kts | 218° |
| 2026-05-06 12:27 | 14.28121 | 113.26663 | 35904 ft | 490 kts | 218° |
| 2026-05-06 12:28 | 14.22580 | 113.22582 | 35902 ft | 490 kts | 218° |
| 2026-05-06 12:28 | 14.17032 | 113.18499 | 35900 ft | 490 kts | 218° |
| 2026-05-06 12:29 | 14.11481 | 113.14413 | 35903 ft | 490 kts | 218° |
| 2026-05-06 12:29 | 14.05942 | 113.10339 | 35903 ft | 490 kts | 218° |
| 2026-05-06 12:30 | 14.00386 | 113.06255 | 35904 ft | 490 kts | 218° |
| 2026-05-06 12:30 | 13.94845 | 113.02189 | 35904 ft | 489 kts | 218° |
| 2026-05-06 12:31 | 13.89292 | 112.98122 | 35902 ft | 489 kts | 218° |
| 2026-05-06 12:31 | 13.83752 | 112.94065 | 35901 ft | 489 kts | 218° |
| 2026-05-06 12:32 | 13.78209 | 112.90008 | 35894 ft | 489 kts | 218° |
| 2026-05-06 12:32 | 13.72669 | 112.85955 | 35901 ft | 489 kts | 218° |
| 2026-05-06 12:33 | 13.67121 | 112.81899 | 35905 ft | 490 kts | 218° |
| 2026-05-06 12:33 | 13.61563 | 112.77838 | 35904 ft | 490 kts | 218° |
| 2026-05-06 12:34 | 13.56005 | 112.73781 | 35904 ft | 490 kts | 218° |